sensor_id;sensor_type;location;lat;lon;timestamp;temperature;humidity
77277;DHT22;66330;52.166;9.978;2023-04-06T00:00:51;2.50;51.60
77277;DHT22;66330;52.166;9.978;2023-04-06T00:03:17;2.30;51.50
77277;DHT22;66330;52.166;9.978;2023-04-06T00:05:43;2.50;50.90
77277;DHT22;66330;52.166;9.978;2023-04-06T00:08:09;2.10;51.50
77277;DHT22;66330;52.166;9.978;2023-04-06T00:10:34;1.90;51.30
77277;DHT22;66330;52.166;9.978;2023-04-06T00:13:00;2.00;51.40
77277;DHT22;66330;52.166;9.978;2023-04-06T00:15:26;2.20;51.00
77277;DHT22;66330;52.166;9.978;2023-04-06T00:17:52;2.00;50.70
77277;DHT22;66330;52.166;9.978;2023-04-06T00:20:18;2.00;51.60
77277;DHT22;66330;52.166;9.978;2023-04-06T00:22:44;1.80;51.50
77277;DHT22;66330;52.166;9.978;2023-04-06T00:25:10;2.00;51.70
77277;DHT22;66330;52.166;9.978;2023-04-06T00:27:37;2.10;51.90
77277;DHT22;66330;52.166;9.978;2023-04-06T00:30:04;1.90;51.80
77277;DHT22;66330;52.166;9.978;2023-04-06T00:32:30;2.00;52.00
77277;DHT22;66330;52.166;9.978;2023-04-06T00:34:56;1.90;51.90
77277;DHT22;66330;52.166;9.978;2023-04-06T00:37:21;2.30;51.90
77277;DHT22;66330;52.166;9.978;2023-04-06T00:39:47;1.80;51.80
77277;DHT22;66330;52.166;9.978;2023-04-06T00:42:13;2.20;52.10
77277;DHT22;66330;52.166;9.978;2023-04-06T00:44:42;1.80;51.80
77277;DHT22;66330;52.166;9.978;2023-04-06T00:47:08;1.90;51.80
77277;DHT22;66330;52.166;9.978;2023-04-06T00:49:34;2.30;52.10
77277;DHT22;66330;52.166;9.978;2023-04-06T00:52:00;1.90;51.70
77277;DHT22;66330;52.166;9.978;2023-04-06T00:54:26;2.00;51.80
77277;DHT22;66330;52.166;9.978;2023-04-06T00:56:52;2.10;51.90
77277;DHT22;66330;52.166;9.978;2023-04-06T00:59:18;2.10;51.80
77277;DHT22;66330;52.166;9.978;2023-04-06T01:01:44;1.80;51.20
77277;DHT22;66330;52.166;9.978;2023-04-06T01:04:10;1.90;50.60
77277;DHT22;66330;52.166;9.978;2023-04-06T01:06:35;2.30;51.40
77277;DHT22;66330;52.166;9.978;2023-04-06T01:09:01;1.80;51.30
77277;DHT22;66330;52.166;9.978;2023-04-06T01:11:27;2.30;51.10
77277;DHT22;66330;52.166;9.978;2023-04-06T01:13:53;2.30;51.60
77277;DHT22;66330;52.166;9.978;2023-04-06T01:16:19;2.40;51.00
77277;DHT22;66330;52.166;9.978;2023-04-06T01:18:44;1.90;50.80
77277;DHT22;66330;52.166;9.978;2023-04-06T01:21:10;2.20;51.60
77277;DHT22;66330;52.166;9.978;2023-04-06T01:23:43;2.10;51.50
77277;DHT22;66330;52.166;9.978;2023-04-06T01:26:09;2.40;51.40
77277;DHT22;66330;52.166;9.978;2023-04-06T01:28:35;2.10;51.30
77277;DHT22;66330;52.166;9.978;2023-04-06T01:34:25;2.30;51.30
77277;DHT22;66330;52.166;9.978;2023-04-06T01:36:50;2.00;50.80
77277;DHT22;66330;52.166;9.978;2023-04-06T01:39:16;2.40;50.10
77277;DHT22;66330;52.166;9.978;2023-04-06T01:41:41;2.50;50.50
77277;DHT22;66330;52.166;9.978;2023-04-06T01:44:07;2.40;51.10
77277;DHT22;66330;52.166;9.978;2023-04-06T01:46:33;2.40;50.80
77277;DHT22;66330;52.166;9.978;2023-04-06T01:48:58;2.50;51.00
77277;DHT22;66330;52.166;9.978;2023-04-06T01:51:24;2.50;50.70
77277;DHT22;66330;52.166;9.978;2023-04-06T01:53:51;2.30;50.20
77277;DHT22;66330;52.166;9.978;2023-04-06T01:56:16;2.50;50.70
77277;DHT22;66330;52.166;9.978;2023-04-06T01:58:42;2.40;50.80
77277;DHT22;66330;52.166;9.978;2023-04-06T02:01:08;2.60;50.90
77277;DHT22;66330;52.166;9.978;2023-04-06T02:03:33;2.30;50.40
77277;DHT22;66330;52.166;9.978;2023-04-06T02:05:59;2.60;50.80
77277;DHT22;66330;52.166;9.978;2023-04-06T02:08:24;2.30;49.70
77277;DHT22;66330;52.166;9.978;2023-04-06T02:10:50;2.20;50.40
77277;DHT22;66330;52.166;9.978;2023-04-06T02:13:16;2.50;50.70
77277;DHT22;66330;52.166;9.978;2023-04-06T02:15:41;2.30;50.40
77277;DHT22;66330;52.166;9.978;2023-04-06T02:18:07;2.50;50.50
77277;DHT22;66330;52.166;9.978;2023-04-06T02:20:33;2.40;50.30
77277;DHT22;66330;52.166;9.978;2023-04-06T02:22:59;2.80;49.60
77277;DHT22;66330;52.166;9.978;2023-04-06T02:25:25;2.40;49.70
77277;DHT22;66330;52.166;9.978;2023-04-06T02:27:51;2.40;50.20
77277;DHT22;66330;52.166;9.978;2023-04-06T02:30:17;2.50;50.20
77277;DHT22;66330;52.166;9.978;2023-04-06T02:32:43;2.80;50.40
77277;DHT22;66330;52.166;9.978;2023-04-06T02:35:08;2.50;49.50
77277;DHT22;66330;52.166;9.978;2023-04-06T02:37:34;2.40;50.00
77277;DHT22;66330;52.166;9.978;2023-04-06T02:39:59;2.80;49.90
77277;DHT22;66330;52.166;9.978;2023-04-06T02:42:25;2.70;49.30
77277;DHT22;66330;52.166;9.978;2023-04-06T02:44:51;2.50;50.10
77277;DHT22;66330;52.166;9.978;2023-04-06T02:47:16;2.50;50.10
77277;DHT22;66330;52.166;9.978;2023-04-06T02:49:42;2.40;50.00
77277;DHT22;66330;52.166;9.978;2023-04-06T02:52:07;2.40;49.10
77277;DHT22;66330;52.166;9.978;2023-04-06T02:54:33;2.80;49.60
77277;DHT22;66330;52.166;9.978;2023-04-06T02:56:58;2.70;50.10
77277;DHT22;66330;52.166;9.978;2023-04-06T02:59:24;3.00;50.40
77277;DHT22;66330;52.166;9.978;2023-04-06T03:01:50;2.60;49.40
77277;DHT22;66330;52.166;9.978;2023-04-06T03:04:16;2.50;49.50
77277;DHT22;66330;52.166;9.978;2023-04-06T03:06:42;2.80;50.20
77277;DHT22;66330;52.166;9.978;2023-04-06T03:09:07;2.50;49.50
77277;DHT22;66330;52.166;9.978;2023-04-06T03:11:33;3.00;50.30
77277;DHT22;66330;52.166;9.978;2023-04-06T03:13:58;3.10;49.80
77277;DHT22;66330;52.166;9.978;2023-04-06T03:16:24;2.90;50.10
77277;DHT22;66330;52.166;9.978;2023-04-06T03:18:50;2.80;49.90
77277;DHT22;66330;52.166;9.978;2023-04-06T03:21:15;2.90;49.80
77277;DHT22;66330;52.166;9.978;2023-04-06T03:23:42;3.00;49.60
77277;DHT22;66330;52.166;9.978;2023-04-06T03:26:08;2.90;49.70
77277;DHT22;66330;52.166;9.978;2023-04-06T03:28:33;3.30;49.90
77277;DHT22;66330;52.166;9.978;2023-04-06T03:30:59;3.20;49.00
77277;DHT22;66330;52.166;9.978;2023-04-06T03:33:25;3.20;49.10
77277;DHT22;66330;52.166;9.978;2023-04-06T03:35:54;3.30;49.30
77277;DHT22;66330;52.166;9.978;2023-04-06T03:38:20;3.60;49.80
77277;DHT22;66330;52.166;9.978;2023-04-06T03:40:45;3.30;49.10
77277;DHT22;66330;52.166;9.978;2023-04-06T03:43:11;3.40;49.60
77277;DHT22;66330;52.166;9.978;2023-04-06T03:45:37;3.20;49.30
77277;DHT22;66330;52.166;9.978;2023-04-06T03:48:03;3.40;48.90
77277;DHT22;66330;52.166;9.978;2023-04-06T03:50:28;3.50;48.90
77277;DHT22;66330;52.166;9.978;2023-04-06T03:52:54;3.60;49.40
77277;DHT22;66330;52.166;9.978;2023-04-06T03:55:19;3.50;49.20
77277;DHT22;66330;52.166;9.978;2023-04-06T03:57:45;3.50;49.20
77277;DHT22;66330;52.166;9.978;2023-04-06T04:00:11;3.70;49.30
77277;DHT22;66330;52.166;9.978;2023-04-06T04:02:37;3.70;49.20
77277;DHT22;66330;52.166;9.978;2023-04-06T04:05:03;3.50;49.00
77277;DHT22;66330;52.166;9.978;2023-04-06T04:07:28;3.70;49.10
77277;DHT22;66330;52.166;9.978;2023-04-06T04:09:54;3.60;49.00
77277;DHT22;66330;52.166;9.978;2023-04-06T04:12:20;3.60;48.00
77277;DHT22;66330;52.166;9.978;2023-04-06T04:14:45;3.60;48.80
77277;DHT22;66330;52.166;9.978;2023-04-06T04:17:11;3.40;48.80
77277;DHT22;66330;52.166;9.978;2023-04-06T04:19:36;3.30;48.50
77277;DHT22;66330;52.166;9.978;2023-04-06T04:22:02;3.40;48.90
77277;DHT22;66330;52.166;9.978;2023-04-06T04:24:30;3.50;48.60
77277;DHT22;66330;52.166;9.978;2023-04-06T04:26:56;3.10;49.00
77277;DHT22;66330;52.166;9.978;2023-04-06T04:29:22;3.10;49.00
77277;DHT22;66330;52.166;9.978;2023-04-06T04:31:48;3.10;49.10
77277;DHT22;66330;52.166;9.978;2023-04-06T04:34:14;3.10;48.80
77277;DHT22;66330;52.166;9.978;2023-04-06T04:36:40;3.00;48.50
77277;DHT22;66330;52.166;9.978;2023-04-06T04:39:07;2.80;49.00
77277;DHT22;66330;52.166;9.978;2023-04-06T04:41:33;3.00;49.10
77277;DHT22;66330;52.166;9.978;2023-04-06T04:43:58;2.60;48.80
77277;DHT22;66330;52.166;9.978;2023-04-06T04:46:24;2.70;49.30
77277;DHT22;66330;52.166;9.978;2023-04-06T04:48:50;3.00;49.00
77277;DHT22;66330;52.166;9.978;2023-04-06T04:51:15;2.80;49.20
77277;DHT22;66330;52.166;9.978;2023-04-06T04:53:41;2.70;49.70
77277;DHT22;66330;52.166;9.978;2023-04-06T04:56:06;2.70;48.90
77277;DHT22;66330;52.166;9.978;2023-04-06T04:58:32;2.70;49.50
77277;DHT22;66330;52.166;9.978;2023-04-06T05:00:58;2.70;49.20
77277;DHT22;66330;52.166;9.978;2023-04-06T05:03:24;2.70;49.70
77277;DHT22;66330;52.166;9.978;2023-04-06T05:05:51;3.00;49.80
77277;DHT22;66330;52.166;9.978;2023-04-06T05:08:16;3.00;50.10
77277;DHT22;66330;52.166;9.978;2023-04-06T05:10:42;3.00;50.10
77277;DHT22;66330;52.166;9.978;2023-04-06T05:13:09;3.20;50.10
77277;DHT22;66330;52.166;9.978;2023-04-06T05:15:35;3.00;50.00
77277;DHT22;66330;52.166;9.978;2023-04-06T05:18:03;2.70;49.80
77277;DHT22;66330;52.166;9.978;2023-04-06T05:20:29;3.20;50.10
77277;DHT22;66330;52.166;9.978;2023-04-06T05:22:55;3.60;49.60
77277;DHT22;66330;52.166;9.978;2023-04-06T05:25:21;3.30;49.90
77277;DHT22;66330;52.166;9.978;2023-04-06T05:27:46;3.40;50.40
77277;DHT22;66330;52.166;9.978;2023-04-06T05:30:12;3.60;49.40
77277;DHT22;66330;52.166;9.978;2023-04-06T05:32:38;4.00;50.10
77277;DHT22;66330;52.166;9.978;2023-04-06T05:35:03;3.80;49.80
77277;DHT22;66330;52.166;9.978;2023-04-06T05:37:29;3.90;49.70
77277;DHT22;66330;52.166;9.978;2023-04-06T05:39:55;4.20;49.10
77277;DHT22;66330;52.166;9.978;2023-04-06T05:42:21;4.70;49.60
77277;DHT22;66330;52.166;9.978;2023-04-06T05:44:47;4.80;48.50
77277;DHT22;66330;52.166;9.978;2023-04-06T05:47:13;5.10;48.90
77277;DHT22;66330;52.166;9.978;2023-04-06T05:49:38;5.50;48.60
77277;DHT22;66330;52.166;9.978;2023-04-06T05:52:04;6.00;48.20
77277;DHT22;66330;52.166;9.978;2023-04-06T05:54:30;6.10;47.70
77277;DHT22;66330;52.166;9.978;2023-04-06T05:56:55;6.50;47.50
77277;DHT22;66330;52.166;9.978;2023-04-06T05:59:21;6.80;47.30
77277;DHT22;66330;52.166;9.978;2023-04-06T06:01:47;7.10;46.60
77277;DHT22;66330;52.166;9.978;2023-04-06T06:04:12;7.50;46.00
77277;DHT22;66330;52.166;9.978;2023-04-06T06:06:38;7.80;46.10
77277;DHT22;66330;52.166;9.978;2023-04-06T06:09:03;8.20;45.90
77277;DHT22;66330;52.166;9.978;2023-04-06T06:11:29;8.50;45.40
77277;DHT22;66330;52.166;9.978;2023-04-06T06:13:55;8.80;45.00
77277;DHT22;66330;52.166;9.978;2023-04-06T06:16:21;9.10;44.80
77277;DHT22;66330;52.166;9.978;2023-04-06T06:18:47;9.30;43.60
77277;DHT22;66330;52.166;9.978;2023-04-06T06:21:13;9.60;43.60
77277;DHT22;66330;52.166;9.978;2023-04-06T06:23:39;9.90;43.20
77277;DHT22;66330;52.166;9.978;2023-04-06T06:26:04;10.20;41.40
77277;DHT22;66330;52.166;9.978;2023-04-06T06:28:31;10.40;41.30
77277;DHT22;66330;52.166;9.978;2023-04-06T06:30:57;10.50;40.70
77277;DHT22;66330;52.166;9.978;2023-04-06T06:33:23;10.70;40.40
77277;DHT22;66330;52.166;9.978;2023-04-06T06:35:49;10.90;40.00
77277;DHT22;66330;52.166;9.978;2023-04-06T06:38:15;11.10;39.20
77277;DHT22;66330;52.166;9.978;2023-04-06T06:40:41;11.30;39.30
77277;DHT22;66330;52.166;9.978;2023-04-06T06:43:06;11.50;38.90
77277;DHT22;66330;52.166;9.978;2023-04-06T06:45:32;11.70;38.40
77277;DHT22;66330;52.166;9.978;2023-04-06T06:47:58;11.90;38.50
77277;DHT22;66330;52.166;9.978;2023-04-06T06:50:23;12.00;38.00
77277;DHT22;66330;52.166;9.978;2023-04-06T06:52:49;12.10;37.30
77277;DHT22;66330;52.166;9.978;2023-04-06T06:55:14;12.20;37.30
77277;DHT22;66330;52.166;9.978;2023-04-06T06:57:40;12.50;37.10
77277;DHT22;66330;52.166;9.978;2023-04-06T07:00:08;12.70;36.80
77277;DHT22;66330;52.166;9.978;2023-04-06T07:02:34;12.80;36.00
77277;DHT22;66330;52.166;9.978;2023-04-06T07:05:01;13.10;35.90
77277;DHT22;66330;52.166;9.978;2023-04-06T07:07:27;13.20;35.50
77277;DHT22;66330;52.166;9.978;2023-04-06T07:09:52;13.40;35.20
77277;DHT22;66330;52.166;9.978;2023-04-06T07:12:18;13.50;34.70
77277;DHT22;66330;52.166;9.978;2023-04-06T07:14:44;13.50;34.30
77277;DHT22;66330;52.166;9.978;2023-04-06T07:17:09;13.50;34.20
77277;DHT22;66330;52.166;9.978;2023-04-06T07:19:35;13.50;33.90
77277;DHT22;66330;52.166;9.978;2023-04-06T07:22:01;13.30;33.70
77277;DHT22;66330;52.166;9.978;2023-04-06T07:24:27;13.30;33.70
77277;DHT22;66330;52.166;9.978;2023-04-06T07:26:53;13.30;33.60
77277;DHT22;66330;52.166;9.978;2023-04-06T07:29:19;13.50;34.10
77277;DHT22;66330;52.166;9.978;2023-04-06T07:31:44;13.70;34.50
77277;DHT22;66330;52.166;9.978;2023-04-06T07:34:10;13.90;34.20
77277;DHT22;66330;52.166;9.978;2023-04-06T07:36:36;14.40;33.70
77277;DHT22;66330;52.166;9.978;2023-04-06T07:39:01;14.20;32.70
77277;DHT22;66330;52.166;9.978;2023-04-06T07:41:27;14.20;32.60
77277;DHT22;66330;52.166;9.978;2023-04-06T07:43:53;14.20;32.70
77277;DHT22;66330;52.166;9.978;2023-04-06T07:46:18;14.20;32.90
77277;DHT22;66330;52.166;9.978;2023-04-06T07:48:44;14.20;32.90
77277;DHT22;66330;52.166;9.978;2023-04-06T07:51:09;14.30;32.60
77277;DHT22;66330;52.166;9.978;2023-04-06T07:53:39;14.40;32.60
77277;DHT22;66330;52.166;9.978;2023-04-06T07:56:05;14.40;32.20
77277;DHT22;66330;52.166;9.978;2023-04-06T07:58:31;14.30;31.80
77277;DHT22;66330;52.166;9.978;2023-04-06T08:00:57;14.20;31.70
77277;DHT22;66330;52.166;9.978;2023-04-06T08:03:23;14.10;31.80
77277;DHT22;66330;52.166;9.978;2023-04-06T08:05:51;14.10;32.00
77277;DHT22;66330;52.166;9.978;2023-04-06T08:08:18;14.40;31.90
77277;DHT22;66330;52.166;9.978;2023-04-06T08:10:43;14.20;32.10
77277;DHT22;66330;52.166;9.978;2023-04-06T08:13:10;14.30;32.20
77277;DHT22;66330;52.166;9.978;2023-04-06T08:15:36;14.50;32.30
77277;DHT22;66330;52.166;9.978;2023-04-06T08:18:01;14.70;31.80
77277;DHT22;66330;52.166;9.978;2023-04-06T08:20:27;14.80;31.70
77277;DHT22;66330;52.166;9.978;2023-04-06T08:22:52;15.00;31.60
77277;DHT22;66330;52.166;9.978;2023-04-06T08:25:18;15.20;31.50
77277;DHT22;66330;52.166;9.978;2023-04-06T08:27:44;15.40;31.20
77277;DHT22;66330;52.166;9.978;2023-04-06T08:30:09;15.60;31.30
77277;DHT22;66330;52.166;9.978;2023-04-06T08:32:35;15.70;31.10
77277;DHT22;66330;52.166;9.978;2023-04-06T08:35:01;15.70;30.50
77277;DHT22;66330;52.166;9.978;2023-04-06T08:37:26;15.50;30.30
77277;DHT22;66330;52.166;9.978;2023-04-06T08:39:52;15.60;30.40
77277;DHT22;66330;52.166;9.978;2023-04-06T08:42:20;15.50;30.10
77277;DHT22;66330;52.166;9.978;2023-04-06T08:44:48;15.40;30.00
77277;DHT22;66330;52.166;9.978;2023-04-06T08:47:14;15.30;30.30
77277;DHT22;66330;52.166;9.978;2023-04-06T08:49:40;15.40;31.00
77277;DHT22;66330;52.166;9.978;2023-04-06T08:52:07;15.40;30.70
77277;DHT22;66330;52.166;9.978;2023-04-06T08:54:34;15.40;30.60
77277;DHT22;66330;52.166;9.978;2023-04-06T08:57:00;15.40;30.20
77277;DHT22;66330;52.166;9.978;2023-04-06T08:59:26;15.30;30.00
77277;DHT22;66330;52.166;9.978;2023-04-06T09:01:53;15.20;30.10
77277;DHT22;66330;52.166;9.978;2023-04-06T09:04:20;15.10;30.40
77277;DHT22;66330;52.166;9.978;2023-04-06T09:06:45;15.10;30.50
77277;DHT22;66330;52.166;9.978;2023-04-06T09:09:11;15.20;30.40
77277;DHT22;66330;52.166;9.978;2023-04-06T09:11:45;15.00;30.30
77277;DHT22;66330;52.166;9.978;2023-04-06T09:14:11;15.10;30.40
77277;DHT22;66330;52.166;9.978;2023-04-06T09:16:41;15.20;30.70
77277;DHT22;66330;52.166;9.978;2023-04-06T09:19:07;15.20;30.80
77277;DHT22;66330;52.166;9.978;2023-04-06T09:21:33;15.20;30.70
77277;DHT22;66330;52.166;9.978;2023-04-06T09:24:00;15.30;30.40
77277;DHT22;66330;52.166;9.978;2023-04-06T09:26:26;15.30;30.50
77277;DHT22;66330;52.166;9.978;2023-04-06T09:28:56;15.40;30.40
77277;DHT22;66330;52.166;9.978;2023-04-06T09:31:23;15.60;30.50
77277;DHT22;66330;52.166;9.978;2023-04-06T09:33:50;15.70;30.20
77277;DHT22;66330;52.166;9.978;2023-04-06T09:36:17;15.90;30.00
77277;DHT22;66330;52.166;9.978;2023-04-06T09:38:54;16.20;30.00
77277;DHT22;66330;52.166;9.978;2023-04-06T09:41:33;16.10;29.20
77277;DHT22;66330;52.166;9.978;2023-04-06T09:44:07;16.10;28.90
77277;DHT22;66330;52.166;9.978;2023-04-06T09:46:34;16.00;28.90
77277;DHT22;66330;52.166;9.978;2023-04-06T09:49:02;16.00;29.30
77277;DHT22;66330;52.166;9.978;2023-04-06T09:51:31;15.90;28.90
77277;DHT22;66330;52.166;9.978;2023-04-06T09:53:57;16.00;29.30
77277;DHT22;66330;52.166;9.978;2023-04-06T09:56:28;15.80;29.10
77277;DHT22;66330;52.166;9.978;2023-04-06T09:59:02;15.80;28.70
77277;DHT22;66330;52.166;9.978;2023-04-06T10:01:29;16.00;28.80
77277;DHT22;66330;52.166;9.978;2023-04-06T10:04:33;16.10;28.70
77277;DHT22;66330;52.166;9.978;2023-04-06T10:07:02;16.20;28.40
77277;DHT22;66330;52.166;9.978;2023-04-06T10:09:28;16.30;28.50
77277;DHT22;66330;52.166;9.978;2023-04-06T10:12:02;16.40;28.60
77277;DHT22;66330;52.166;9.978;2023-04-06T10:14:28;16.60;28.90
77277;DHT22;66330;52.166;9.978;2023-04-06T10:16:54;16.70;28.60
77277;DHT22;66330;52.166;9.978;2023-04-06T10:19:27;16.90;28.30
77277;DHT22;66330;52.166;9.978;2023-04-06T10:21:57;17.00;27.70
77277;DHT22;66330;52.166;9.978;2023-04-06T10:24:24;17.20;27.20
77277;DHT22;66330;52.166;9.978;2023-04-06T10:27:01;17.30;26.80
77277;DHT22;66330;52.166;9.978;2023-04-06T10:29:27;17.60;26.80
77277;DHT22;66330;52.166;9.978;2023-04-06T10:31:52;18.00;26.60
77277;DHT22;66330;52.166;9.978;2023-04-06T10:34:18;18.30;26.30
77277;DHT22;66330;52.166;9.978;2023-04-06T10:36:44;18.60;26.50
77277;DHT22;66330;52.166;9.978;2023-04-06T10:39:09;18.70;25.70
77277;DHT22;66330;52.166;9.978;2023-04-06T10:41:41;18.50;25.60
77277;DHT22;66330;52.166;9.978;2023-04-06T10:44:06;18.40;25.50
77277;DHT22;66330;52.166;9.978;2023-04-06T10:46:33;18.40;26.00
77277;DHT22;66330;52.166;9.978;2023-04-06T10:49:10;18.70;26.00
77277;DHT22;66330;52.166;9.978;2023-04-06T10:51:38;19.10;25.80
77277;DHT22;66330;52.166;9.978;2023-04-06T10:54:06;19.40;25.50
77277;DHT22;66330;52.166;9.978;2023-04-06T10:56:33;20.00;25.60
77277;DHT22;66330;52.166;9.978;2023-04-06T10:59:01;20.50;25.00
77277;DHT22;66330;52.166;9.978;2023-04-06T11:01:27;20.90;25.00
77277;DHT22;66330;52.166;9.978;2023-04-06T11:03:56;21.20;24.70
77277;DHT22;66330;52.166;9.978;2023-04-06T11:06:27;21.70;24.80
77277;DHT22;66330;52.166;9.978;2023-04-06T11:08:55;22.40;24.40
77277;DHT22;66330;52.166;9.978;2023-04-06T11:11:22;23.00;23.90
77277;DHT22;66330;52.166;9.978;2023-04-06T11:13:49;23.30;23.30
77277;DHT22;66330;52.166;9.978;2023-04-06T11:16:19;23.70;23.10
77277;DHT22;66330;52.166;9.978;2023-04-06T11:18:59;23.80;22.90
77277;DHT22;66330;52.166;9.978;2023-04-06T11:21:44;24.10;22.60
77277;DHT22;66330;52.166;9.978;2023-04-06T11:26:43;24.70;22.20
77277;DHT22;66330;52.166;9.978;2023-04-06T11:29:10;25.50;22.40
77277;DHT22;66330;52.166;9.978;2023-04-06T11:31:53;25.00;21.50
77277;DHT22;66330;52.166;9.978;2023-04-06T11:34:21;25.00;21.70
77277;DHT22;66330;52.166;9.978;2023-04-06T11:36:49;25.20;21.60
77277;DHT22;66330;52.166;9.978;2023-04-06T11:39:21;25.10;21.50
77277;DHT22;66330;52.166;9.978;2023-04-06T11:41:51;25.40;22.10
77277;DHT22;66330;52.166;9.978;2023-04-06T11:44:43;25.80;21.60
77277;DHT22;66330;52.166;9.978;2023-04-06T11:47:12;26.10;21.20
77277;DHT22;66330;52.166;9.978;2023-04-06T11:49:42;26.40;21.30
77277;DHT22;66330;52.166;9.978;2023-04-06T11:52:23;26.70;20.90
77277;DHT22;66330;52.166;9.978;2023-04-06T11:54:52;26.60;20.70
77277;DHT22;66330;52.166;9.978;2023-04-06T11:57:19;26.90;21.00
77277;DHT22;66330;52.166;9.978;2023-04-06T11:59:45;27.10;20.70
77277;DHT22;66330;52.166;9.978;2023-04-06T12:02:11;27.50;21.00
77277;DHT22;66330;52.166;9.978;2023-04-06T12:04:37;28.00;20.50
77277;DHT22;66330;52.166;9.978;2023-04-06T12:07:03;28.00;19.90
77277;DHT22;66330;52.166;9.978;2023-04-06T12:09:29;27.90;19.80
77277;DHT22;66330;52.166;9.978;2023-04-06T12:11:55;28.00;19.90
77277;DHT22;66330;52.166;9.978;2023-04-06T12:14:21;27.90;19.80
77277;DHT22;66330;52.166;9.978;2023-04-06T12:16:47;27.90;20.20
77277;DHT22;66330;52.166;9.978;2023-04-06T12:19:12;27.60;19.40
77277;DHT22;66330;52.166;9.978;2023-04-06T12:21:38;27.30;19.60
77277;DHT22;66330;52.166;9.978;2023-04-06T12:24:04;27.30;19.90
77277;DHT22;66330;52.166;9.978;2023-04-06T12:26:31;27.30;20.10
77277;DHT22;66330;52.166;9.978;2023-04-06T12:28:57;27.30;20.20
77277;DHT22;66330;52.166;9.978;2023-04-06T12:31:24;27.30;20.00
77277;DHT22;66330;52.166;9.978;2023-04-06T12:33:51;27.40;19.90
77277;DHT22;66330;52.166;9.978;2023-04-06T12:36:20;27.30;19.90
77277;DHT22;66330;52.166;9.978;2023-04-06T12:38:49;27.40;20.70
77277;DHT22;66330;52.166;9.978;2023-04-06T12:41:16;28.00;20.30
77277;DHT22;66330;52.166;9.978;2023-04-06T12:43:42;28.30;19.80
77277;DHT22;66330;52.166;9.978;2023-04-06T12:46:08;28.60;19.90
77277;DHT22;66330;52.166;9.978;2023-04-06T12:48:34;28.70;19.50
77277;DHT22;66330;52.166;9.978;2023-04-06T12:51:03;28.70;19.30
77277;DHT22;66330;52.166;9.978;2023-04-06T12:53:29;28.70;19.40
77277;DHT22;66330;52.166;9.978;2023-04-06T12:55:56;28.80;19.40
77277;DHT22;66330;52.166;9.978;2023-04-06T12:58:23;28.90;19.20
77277;DHT22;66330;52.166;9.978;2023-04-06T13:00:49;28.90;19.00
77277;DHT22;66330;52.166;9.978;2023-04-06T13:03:19;28.90;18.90
77277;DHT22;66330;52.166;9.978;2023-04-06T13:05:49;28.80;18.80
77277;DHT22;66330;52.166;9.978;2023-04-06T13:08:16;28.80;18.60
77277;DHT22;66330;52.166;9.978;2023-04-06T13:10:46;28.60;19.10
77277;DHT22;66330;52.166;9.978;2023-04-06T13:13:14;28.50;18.50
77277;DHT22;66330;52.166;9.978;2023-04-06T13:15:40;28.10;18.40
77277;DHT22;66330;52.166;9.978;2023-04-06T13:18:05;28.30;18.90
77277;DHT22;66330;52.166;9.978;2023-04-06T13:20:31;27.60;18.60
77277;DHT22;66330;52.166;9.978;2023-04-06T13:22:56;27.50;18.50
77277;DHT22;66330;52.166;9.978;2023-04-06T13:25:22;27.20;18.50
77277;DHT22;66330;52.166;9.978;2023-04-06T13:27:47;27.00;18.80
77277;DHT22;66330;52.166;9.978;2023-04-06T13:30:14;27.30;19.20
77277;DHT22;66330;52.166;9.978;2023-04-06T13:32:39;27.50;19.10
77277;DHT22;66330;52.166;9.978;2023-04-06T13:35:06;27.80;19.10
77277;DHT22;66330;52.166;9.978;2023-04-06T13:37:33;28.00;18.90
77277;DHT22;66330;52.166;9.978;2023-04-06T13:39:58;28.40;19.10
77277;DHT22;66330;52.166;9.978;2023-04-06T13:42:24;28.90;18.90
77277;DHT22;66330;52.166;9.978;2023-04-06T13:44:49;29.30;18.60
77277;DHT22;66330;52.166;9.978;2023-04-06T13:47:16;29.50;18.70
77277;DHT22;66330;52.166;9.978;2023-04-06T13:49:43;29.80;18.50
77277;DHT22;66330;52.166;9.978;2023-04-06T13:52:08;29.80;18.10
77277;DHT22;66330;52.166;9.978;2023-04-06T13:54:35;29.60;17.90
77277;DHT22;66330;52.166;9.978;2023-04-06T13:57:01;29.20;17.70
77277;DHT22;66330;52.166;9.978;2023-04-06T13:59:36;28.60;17.30
77277;DHT22;66330;52.166;9.978;2023-04-06T14:02:03;28.10;17.70
77277;DHT22;66330;52.166;9.978;2023-04-06T14:04:29;27.80;18.10
77277;DHT22;66330;52.166;9.978;2023-04-06T14:06:55;27.70;18.20
77277;DHT22;66330;52.166;9.978;2023-04-06T14:09:21;27.30;18.10
77277;DHT22;66330;52.166;9.978;2023-04-06T14:11:47;27.00;18.20
77277;DHT22;66330;52.166;9.978;2023-04-06T14:14:12;26.90;18.50
77277;DHT22;66330;52.166;9.978;2023-04-06T14:16:38;27.10;18.70
77277;DHT22;66330;52.166;9.978;2023-04-06T14:19:03;27.10;18.70
77277;DHT22;66330;52.166;9.978;2023-04-06T14:21:29;27.20;18.80
77277;DHT22;66330;52.166;9.978;2023-04-06T14:23:55;27.30;18.80
77277;DHT22;66330;52.166;9.978;2023-04-06T14:26:20;27.50;18.80
77277;DHT22;66330;52.166;9.978;2023-04-06T14:28:46;27.80;18.80
77277;DHT22;66330;52.166;9.978;2023-04-06T14:31:13;27.80;18.50
77277;DHT22;66330;52.166;9.978;2023-04-06T14:33:40;27.70;18.70
77277;DHT22;66330;52.166;9.978;2023-04-06T14:36:07;27.70;18.50
77277;DHT22;66330;52.166;9.978;2023-04-06T14:38:32;27.60;18.50
77277;DHT22;66330;52.166;9.978;2023-04-06T14:40:58;27.50;18.60
77277;DHT22;66330;52.166;9.978;2023-04-06T14:43:24;27.50;18.70
77277;DHT22;66330;52.166;9.978;2023-04-06T14:45:50;27.40;18.80
77277;DHT22;66330;52.166;9.978;2023-04-06T14:48:16;27.20;18.70
77277;DHT22;66330;52.166;9.978;2023-04-06T14:50:52;26.90;18.90
77277;DHT22;66330;52.166;9.978;2023-04-06T14:53:20;26.70;18.90
77277;DHT22;66330;52.166;9.978;2023-04-06T14:55:46;26.40;19.00
77277;DHT22;66330;52.166;9.978;2023-04-06T14:58:12;26.20;19.30
77277;DHT22;66330;52.166;9.978;2023-04-06T15:00:38;26.10;19.40
77277;DHT22;66330;52.166;9.978;2023-04-06T15:03:04;26.00;19.40
77277;DHT22;66330;52.166;9.978;2023-04-06T15:05:29;25.80;19.40
77277;DHT22;66330;52.166;9.978;2023-04-06T15:08:10;25.70;19.50
77277;DHT22;66330;52.166;9.978;2023-04-06T15:10:40;25.50;19.60
77277;DHT22;66330;52.166;9.978;2023-04-06T15:13:06;25.30;19.80
77277;DHT22;66330;52.166;9.978;2023-04-06T15:15:31;25.00;19.80
77277;DHT22;66330;52.166;9.978;2023-04-06T15:17:57;25.30;20.00
77277;DHT22;66330;52.166;9.978;2023-04-06T15:20:23;25.10;19.80
77277;DHT22;66330;52.166;9.978;2023-04-06T15:22:48;24.90;19.90
77277;DHT22;66330;52.166;9.978;2023-04-06T15:25:14;24.70;20.10
77277;DHT22;66330;52.166;9.978;2023-04-06T15:27:39;24.50;20.20
77277;DHT22;66330;52.166;9.978;2023-04-06T15:30:07;24.50;20.30
77277;DHT22;66330;52.166;9.978;2023-04-06T15:32:33;24.50;20.40
77277;DHT22;66330;52.166;9.978;2023-04-06T15:34:59;24.90;20.80
77277;DHT22;66330;52.166;9.978;2023-04-06T15:37:25;24.40;20.60
77277;DHT22;66330;52.166;9.978;2023-04-06T15:39:51;24.20;20.60